Time;durP1;ratioP1;P1;durP2;ratioP2;P2;SDS_P1;SDS_P2;PMS_P1;PMS_P2;Temp;Humidity;BMP_temperature;BMP_pressure;BME280_temperature;BME280_humidity;BME280_pressure;Samples;Min_cycle;Max_cycle;Signal;HPM_P1;HPM_P2
2022/02/14 00:02:17;;;;;;;;;71.67;55.33;;;;;8.22;73.10;102045.12;146598;599;46010;-72
2022/02/14 00:05:09;;;;;;;;;72.00;58.33;;;;;8.16;73.18;102038.56;146600;564;46012;-72
2022/02/14 00:08:02;;;;;;;;;73.00;56.67;;;;;8.13;72.91;102036.66;146595;669;46016;-72
2022/02/14 00:10:54;;;;;;;;;73.67;62.67;;;;;8.04;73.12;102023.88;146596;592;46914;-72
2022/02/14 00:13:46;;;;;;;;;68.75;55.75;;;;;8.07;73.50;102038.75;146599;590;46916;-72
2022/02/14 00:16:38;;;;;;;;;76.33;61.67;;;;;8.04;73.60;102033.31;146597;642;46020;-72
2022/02/14 00:19:31;;;;;;;;;70.67;58.67;;;;;8.00;73.54;102028.66;146589;582;46024;-72
2022/02/14 00:22:24;;;;;;;;;73.33;60.33;;;;;7.97;73.67;102031.88;146592;689;46008;-73
2022/02/14 00:25:19;;;;;;;;;76.67;62.67;;;;;7.97;73.95;102033.56;146602;611;46013;-73
2022/02/14 00:28:11;;;;;;;;;71.33;56.00;;;;;7.97;73.86;102031.00;146601;564;46999;-72
2022/02/14 00:31:03;;;;;;;;;71.50;55.00;;;;;7.95;73.48;102028.28;146594;579;46016;-73
2022/02/14 00:33:55;;;;;;;;;72.75;55.00;;;;;7.96;73.31;102031.78;146599;580;46008;-73
2022/02/14 00:36:48;;;;;;;;;68.75;52.00;;;;;7.99;73.42;102032.03;146595;594;46016;-72
2022/02/14 00:39:40;;;;;;;;;66.25;50.00;;;;;7.99;73.72;102026.87;146596;572;46020;-73
2022/02/14 00:42:32;;;;;;;;;55.50;44.00;;;;;8.01;73.11;102020.16;146595;586;46017;-72
2022/02/14 00:45:24;;;;;;;;;49.00;41.50;;;;;7.95;73.47;102007.62;146597;693;46020;-88
2022/02/14 00:48:17;;;;;;;;;48.25;40.25;;;;;8.02;73.02;102012.50;146597;581;46017;-74
2022/02/14 00:51:10;;;;;;;;;44.50;34.00;;;;;8.03;73.38;102010.81;146592;594;46020;-80
2022/02/14 00:54:02;;;;;;;;;40.75;34.50;;;;;8.04;72.86;102000.63;146592;603;46016;-81
2022/02/14 00:56:54;;;;;;;;;35.25;30.00;;;;;8.07;73.03;102003.47;146598;617;46021;-77
2022/02/14 00:59:47;;;;;;;;;34.00;29.75;;;;;8.10;73.00;101995.06;146595;616;46016;-81
2022/02/14 01:02:39;;;;;;;;;33.25;29.00;;;;;8.14;73.12;101994.53;146598;738;45914;-71
2022/02/14 01:05:32;;;;;;;;;27.25;25.75;;;;;8.17;72.88;101999.94;146595;563;46017;-74
2022/02/14 01:08:24;;;;;;;;;32.75;28.75;;;;;8.21;73.24;101991.66;146596;602;46020;-75
2022/02/14 01:11:16;;;;;;;;;26.00;24.00;;;;;8.27;73.25;101992.16;146597;581;46016;-74
2022/02/14 01:14:10;;;;;;;;;28.00;23.75;;;;;8.28;72.95;101986.19;146597;600;47008;-75
2022/02/14 01:17:03;;;;;;;;;29.75;26.75;;;;;8.30;72.93;101983.75;146597;617;47010;-73
2022/02/14 01:19:55;;;;;;;;;31.25;26.50;;;;;8.30;72.61;101981.16;146591;564;46020;-73
2022/02/14 01:22:48;;;;;;;;;30.25;28.50;;;;;8.31;72.81;101980.38;146592;589;46016;-74
2022/02/14 01:25:40;;;;;;;;;37.00;32.25;;;;;8.33;72.66;101974.56;146594;601;46021;-75
2022/02/14 01:28:33;;;;;;;;;58.75;46.25;;;;;8.34;72.89;101984.09;146597;579;46016;-75
2022/02/14 01:31:25;;;;;;;;;64.25;49.25;;;;;8.33;73.26;101971.97;146596;669;46914;-72
2022/02/14 01:34:17;;;;;;;;;52.25;43.50;;;;;8.28;73.30;101968.09;146592;666;46017;-78
2022/02/14 01:37:09;;;;;;;;;52.25;42.75;;;;;8.27;73.42;101970.59;146593;591;46020;-75
2022/02/14 01:40:02;;;;;;;;;54.25;44.50;;;;;8.21;73.39;101971.00;146594;609;46017;-74
2022/02/14 01:42:54;;;;;;;;;52.50;44.00;;;;;8.18;73.64;101975.91;146597;569;46008;-73
2022/02/14 01:45:47;;;;;;;;;60.25;47.75;;;;;8.15;73.67;101970.50;146595;563;46910;-72
2022/02/14 01:48:40;;;;;;;;;55.00;42.25;;;;;8.12;74.09;101967.66;146592;595;46021;-71
2022/02/14 01:51:32;;;;;;;;;50.25;40.25;;;;;8.06;74.25;101970.66;146594;595;46016;-71
2022/02/14 01:54:24;;;;;;;;;53.00;41.00;;;;;7.98;74.31;101966.56;146594;590;46020;-70
2022/02/14 01:57:18;;;;;;;;;47.00;38.50;;;;;7.82;74.63;101948.91;146597;660;46010;-69
2022/02/14 02:00:16;;;;;;;;;42.75;35.25;;;;;7.85;74.68;101961.19;146598;577;46025;-78
2022/02/14 02:03:08;;;;;;;;;37.00;34.25;;;;;7.81;75.66;101962.59;146598;578;46020;-76
2022/02/14 02:06:01;;;;;;;;;41.50;35.25;;;;;7.80;75.21;101959.88;146596;700;46020;-77
2022/02/14 02:08:54;;;;;;;;;45.75;35.50;;;;;7.82;75.07;101966.09;146602;624;45916;-76
2022/02/14 02:15:01;;;;;;;;;35.25;33.00;;;;;7.87;74.24;101952.75;146594;591;46012;-73
2022/02/14 02:17:53;;;;;;;;;30.25;30.00;;;;;7.92;73.68;101958.31;146594;606;46008;-74
2022/02/14 02:20:46;;;;;;;;;27.00;24.25;;;;;7.97;73.75;101953.50;146595;693;46016;-71
2022/02/14 02:23:42;;;;;;;;;27.50;24.50;;;;;7.97;73.82;101956.09;146596;584;46020;-73
2022/02/14 02:26:35;;;;;;;;;22.25;18.75;;;;;7.93;74.32;101951.47;146599;564;46029;-69
2022/02/14 02:29:28;;;;;;;;;15.00;15.00;;;;;7.80;74.25;101937.56;146596;634;46028;-69
2022/02/14 02:32:20;;;;;;;;;15.75;14.75;;;;;7.79;74.52;101951.25;146596;582;46012;-71
2022/02/14 02:35:12;;;;;;;;;15.50;12.50;;;;;7.73;74.51;101945.56;146594;609;47008;-72
2022/02/14 02:38:04;;;;;;;;;16.25;12.25;;;;;7.69;74.07;101940.03;146601;570;46016;-71
2022/02/14 02:40:57;;;;;;;;;16.00;15.00;;;;;7.68;74.38;101941.72;146598;569;46021;-70
2022/02/14 02:43:49;;;;;;;;;15.75;14.00;;;;;7.71;74.33;101941.97;146598;624;46010;-70
2022/02/14 02:46:41;;;;;;;;;19.00;14.50;;;;;7.72;73.66;101941.16;146596;641;46008;-77
2022/02/14 02:49:34;;;;;;;;;17.50;14.50;;;;;7.75;74.23;101928.50;146595;563;46016;-74
2022/02/14 02:52:26;;;;;;;;;12.50;12.00;;;;;7.73;74.51;101927.50;146596;576;46020;-74
2022/02/14 02:55:19;;;;;;;;;17.25;15.50;;;;;7.74;73.60;101924.13;146594;567;46017;-76
2022/02/14 02:58:11;;;;;;;;;11.75;11.25;;;;;7.73;73.14;101917.19;146597;571;46008;-74
2022/02/14 03:01:03;;;;;;;;;13.50;11.50;;;;;7.78;73.36;101921.00;146596;581;46018;-74
2022/02/14 03:03:56;;;;;;;;;17.00;15.00;;;;;7.82;73.05;101917.94;146597;613;46020;-74
2022/02/14 03:06:49;;;;;;;;;15.00;15.00;;;;;7.89;72.54;101909.00;146594;573;46012;-71
2022/02/14 03:09:40;;;;;;;;;21.75;20.00;;;;;7.92;72.87;101908.34;146596;564;46021;-71
2022/02/14 03:12:33;;;;;;;;;15.50;15.25;;;;;7.95;72.19;101912.06;146597;576;46010;-70
2022/02/14 03:15:26;;;;;;;;;25.75;21.25;;;;;7.98;72.06;101908.84;146592;666;46020;-69
2022/02/14 03:18:18;;;;;;;;;27.50;25.00;;;;;7.96;72.31;101906.12;146598;570;46016;-69
2022/02/14 03:21:11;;;;;;;;;34.75;31.75;;;;;7.93;72.17;101900.72;146594;570;46020;-69
2022/02/14 03:24:03;;;;;;;;;29.50;28.75;;;;;7.90;72.69;101904.72;146599;584;46011;-73
2022/02/14 03:26:55;;;;;;;;;37.00;29.75;;;;;7.83;72.62;101898.16;146596;616;46020;-74
2022/02/14 03:29:47;;;;;;;;;41.75;35.50;;;;;7.76;72.38;101901.94;146597;611;46010;-70
2022/02/14 03:32:40;;;;;;;;;30.50;26.00;;;;;7.69;72.33;101909.94;146597;581;46008;-74
2022/02/14 03:35:32;;;;;;;;;35.25;30.50;;;;;7.60;72.23;101911.78;146597;576;46016;-74
2022/02/14 03:38:25;;;;;;;;;45.00;37.25;;;;;7.56;72.28;101913.19;146600;582;46008;-72
2022/02/14 03:41:18;;;;;;;;;20.50;16.75;;;;;7.48;72.73;101914.25;146596;630;45017;-74
2022/02/14 03:44:11;;;;;;;;;18.50;16.25;;;;;7.39;72.70;101914.41;146590;678;46020;-73
2022/02/14 03:47:03;;;;;;;;;11.00;11.00;;;;;7.28;72.96;101910.03;146594;604;46017;-74
2022/02/14 03:49:55;;;;;;;;;22.25;21.50;;;;;7.15;72.60;101913.25;146597;631;45020;-78
2022/02/14 03:52:48;;;;;;;;;18.00;15.75;;;;;7.04;73.02;101908.91;146594;577;46010;-76
2022/02/14 03:55:40;;;;;;;;;12.00;10.50;;;;;6.97;72.93;101908.22;146596;614;46913;-75
2022/02/14 03:58:32;;;;;;;;;12.75;8.75;;;;;6.90;73.02;101912.88;146597;593;47010;-72
2022/02/14 04:01:24;;;;;;;;;15.50;12.50;;;;;6.83;72.93;101907.97;146600;569;46021;-73
2022/02/14 04:04:17;;;;;;;;;10.00;9.00;;;;;6.75;72.92;101905.50;146600;593;46016;-72
2022/02/14 04:07:09;;;;;;;;;17.25;17.25;;;;;6.67;72.93;101905.75;146599;580;46020;-70
2022/02/14 04:10:01;;;;;;;;;13.00;10.75;;;;;6.45;73.21;101877.25;146598;615;47010;-73
2022/02/14 04:12:53;;;;;;;;;9.50;9.50;;;;;6.57;73.50;101912.56;146592;613;46020;-70
2022/02/14 04:15:46;;;;;;;;;10.00;9.00;;;;;6.51;73.90;101912.97;146587;613;48916;-70
2022/02/14 04:18:38;;;;;;;;;14.50;10.50;;;;;6.46;73.78;101919.38;146599;607;46020;-68
2022/02/14 04:21:31;;;;;;;;;9.75;8.25;;;;;6.38;73.66;101918.69;146596;570;46016;-71
2022/02/14 04:24:23;;;;;;;;;10.75;10.50;;;;;6.35;73.73;101926.16;146602;601;46025;-69
2022/02/14 04:27:15;;;;;;;;;11.75;8.75;;;;;6.36;73.46;101925.41;146596;563;46016;-75
2022/02/14 04:30:08;;;;;;;;;11.25;10.25;;;;;6.37;73.41;101921.16;146599;688;46008;-75
2022/02/14 04:33:02;;;;;;;;;9.75;9.00;;;;;6.37;73.79;101929.78;146601;574;46016;-74
2022/02/14 04:35:54;;;;;;;;;10.25;10.25;;;;;6.34;73.22;101920.88;146601;683;46008;-71
2022/02/14 04:38:46;;;;;;;;;24.25;22.00;;;;;6.31;73.02;101930.91;146597;623;46011;-72
2022/02/14 04:41:39;;;;;;;;;29.00;24.25;;;;;6.29;73.04;101935.03;146594;563;46008;-75
2022/02/14 04:44:31;;;;;;;;;18.25;16.25;;;;;6.27;72.85;101934.91;146594;564;47013;-76
2022/02/14 04:47:24;;;;;;;;;21.50;19.25;;;;;6.27;73.10;101934.00;146596;595;46008;-70
2022/02/14 04:50:16;;;;;;;;;20.75;20.25;;;;;6.25;72.82;101946.72;146597;680;46010;-76
2022/02/14 04:53:08;;;;;;;;;43.75;34.50;;;;;6.23;73.12;101945.69;146598;570;45914;-76
2022/02/14 04:56:01;;;;;;;;;21.50;19.00;;;;;6.21;73.39;101939.50;146583;569;46916;-71
2022/02/14 04:58:53;;;;;;;;;24.00;17.25;;;;;6.17;73.30;101947.75;146588;617;46020;-74
2022/02/14 05:01:46;;;;;;;;;20.00;16.75;;;;;6.13;73.34;101948.22;146586;650;46011;-70
2022/02/14 05:04:38;;;;;;;;;26.50;22.50;;;;;6.13;73.59;101948.22;146588;661;46020;-70
2022/02/14 05:07:30;;;;;;;;;26.25;22.75;;;;;6.15;73.51;101952.75;146587;602;46016;-69
2022/02/14 05:10:23;;;;;;;;;24.75;20.00;;;;;6.10;73.15;101945.37;146588;602;46008;-70
2022/02/14 05:13:16;;;;;;;;;16.25;15.25;;;;;6.06;73.47;101951.03;146585;607;46016;-71
2022/02/14 05:16:09;;;;;;;;;17.25;14.25;;;;;6.00;73.53;101956.53;146589;588;46021;-70
2022/02/14 05:19:01;;;;;;;;;22.25;19.50;;;;;5.97;73.38;101957.16;146585;595;46016;-70
2022/02/14 05:21:53;;;;;;;;;20.75;19.25;;;;;5.97;73.30;101954.59;146587;652;46020;-72
2022/02/14 05:24:45;;;;;;;;;24.00;22.00;;;;;6.03;73.12;101961.97;146587;597;46016;-72
2022/02/14 05:27:38;;;;;;;;;22.50;17.25;;;;;6.11;73.02;101957.50;146587;612;46008;-72
2022/02/14 05:30:30;;;;;;;;;25.75;25.00;;;;;6.18;72.58;101963.31;146585;627;46012;-72
2022/02/14 05:33:22;;;;;;;;;28.25;26.50;;;;;6.23;72.57;101961.12;146588;564;46914;-71
2022/02/14 05:36:14;;;;;;;;;28.75;26.00;;;;;6.28;72.27;101970.19;146585;618;46017;-72
2022/02/14 05:39:07;;;;;;;;;38.00;32.25;;;;;6.34;72.26;101964.69;146587;579;46021;-72
2022/02/14 05:41:59;;;;;;;;;24.50;21.75;;;;;6.36;72.25;101969.19;146586;633;46016;-79
2022/02/14 05:44:51;;;;;;;;;28.50;24.00;;;;;5.37;72.64;101782.75;146588;578;46009;-92
2022/02/14 05:47:44;;;;;;;;;31.50;27.00;;;;;6.51;72.75;101973.88;146586;571;46016;-87
2022/02/14 05:50:36;;;;;;;;;21.25;18.00;;;;;6.51;72.13;101972.22;146585;571;46008;-78
2022/02/14 05:53:28;;;;;;;;;35.50;30.00;;;;;6.55;72.72;101975.97;146585;600;46916;-78
2022/02/14 05:56:20;;;;;;;;;43.50;37.25;;;;;6.64;72.99;101976.75;146591;573;46020;-80
2022/02/14 05:59:12;;;;;;;;;33.00;29.75;;;;;6.70;73.21;101972.16;146595;608;45916;-77
2022/02/14 06:02:06;;;;;;;;;29.25;25.25;;;;;6.72;72.18;101983.47;146597;622;46008;-76
2022/02/14 06:04:59;;;;;;;;;31.25;25.50;;;;;6.69;72.90;101983.22;146594;580;46016;-84
2022/02/14 06:07:51;;;;;;;;;34.75;30.75;;;;;6.68;72.97;101984.88;146593;649;46008;-74
2022/02/14 06:10:43;;;;;;;;;34.50;28.75;;;;;6.67;73.45;101979.63;146595;610;47010;-79
2022/02/14 06:13:35;;;;;;;;;41.00;35.00;;;;;6.68;73.94;101990.03;146597;644;45030;-80
2022/02/14 06:16:28;;;;;;;;;32.25;27.75;;;;;6.72;73.33;101981.78;146594;591;46016;-73
2022/02/14 06:19:21;;;;;;;;;37.25;32.00;;;;;6.82;72.64;101980.94;146594;614;46020;-83
2022/02/14 06:22:13;;;;;;;;;35.50;30.75;;;;;6.94;72.95;101976.81;146596;621;46016;-82
2022/02/14 06:25:05;;;;;;;;;46.50;37.00;;;;;7.04;72.60;101965.63;146598;579;46017;-72
2022/02/14 06:27:58;;;;;;;;;43.25;35.00;;;;;7.12;72.70;101972.31;146599;613;46016;-74
2022/02/14 06:30:50;;;;;;;;;37.75;32.50;;;;;7.20;73.05;101978.16;146596;592;46020;-72
2022/02/14 06:33:42;;;;;;;;;66.25;49.00;;;;;7.23;72.02;101972.31;146595;591;46016;-74
2022/02/14 06:36:35;;;;;;;;;43.75;37.00;;;;;7.27;72.46;101972.72;146593;565;46009;-75
2022/02/14 06:39:27;;;;;;;;;49.25;38.25;;;;;7.36;72.47;101970.03;146598;616;46012;-75
2022/02/14 06:42:19;;;;;;;;;55.25;43.00;;;;;7.43;72.54;101968.84;146596;563;46008;-75
2022/02/14 06:45:12;;;;;;;;;65.75;48.25;;;;;7.51;72.58;101972.97;146597;577;46026;-73
2022/02/14 06:48:04;;;;;;;;;253.00;197.00;;;;;7.57;72.62;101969.22;146602;624;46008;-71
2022/02/14 06:50:57;;;;;;;;;175.75;135.00;;;;;7.65;72.64;101977.59;146599;564;47013;-72
2022/02/14 06:53:50;;;;;;;;;86.33;72.33;;;;;7.69;72.10;101982.22;146594;608;47020;-71
2022/02/14 06:56:43;;;;;;;;;102.00;87.00;;;;;6.63;72.32;101800.59;146597;680;46016;-77
2022/02/14 06:59:35;;;;;;;;;82.67;71.00;;;;;7.74;72.25;101993.84;146602;592;46021;-77
2022/02/14 07:02:27;;;;;;;;;146.50;122.25;;;;;7.77;72.16;101999.25;146607;607;46915;-72
2022/02/14 07:05:22;;;;;;;;;70.50;53.25;;;;;7.86;72.56;102002.59;146595;587;46020;-71
2022/02/14 07:08:14;;;;;;;;;62.75;48.75;;;;;7.96;72.55;101993.94;146593;575;46017;-70
2022/02/14 07:11:07;;;;;;;;;53.75;41.50;;;;;7.99;72.53;101999.34;146595;624;46020;-73
2022/02/14 07:13:59;;;;;;;;;50.25;38.50;;;;;7.95;72.78;102004.16;146604;592;45878;-69
2022/02/14 07:16:51;;;;;;;;;50.50;40.00;;;;;7.92;72.35;101991.88;146595;624;46020;-73
2022/02/14 07:19:44;;;;;;;;;49.50;41.25;;;;;7.98;72.10;101994.06;146595;616;46016;-75
2022/02/14 07:22:36;;;;;;;;;47.00;39.00;;;;;8.05;71.86;101993.78;146596;592;46021;-74
2022/02/14 07:25:28;;;;;;;;;50.00;39.25;;;;;8.16;72.05;101997.22;146598;580;47010;-74
2022/02/14 07:28:20;;;;;;;;;49.00;37.25;;;;;8.25;72.03;102004.03;146596;570;46020;-74
2022/02/14 07:31:13;;;;;;;;;46.00;38.75;;;;;8.31;71.97;101999.37;146594;694;46016;-74
2022/02/14 07:34:06;;;;;;;;;40.50;35.25;;;;;8.37;72.04;101993.78;146593;582;46008;-75
2022/02/14 07:37:02;;;;;;;;;50.00;39.00;;;;;8.40;72.32;101998.34;146594;602;46012;-73
2022/02/14 07:39:54;;;;;;;;;72.25;56.00;;;;;8.42;71.88;101997.69;146597;607;46008;-71
2022/02/14 07:42:48;;;;;;;;;49.00;39.50;;;;;8.44;71.85;101992.63;146596;567;46016;-69
2022/02/14 07:45:41;;;;;;;;;50.50;39.50;;;;;8.46;71.36;101988.50;146598;563;45021;-68
2022/02/14 07:48:34;;;;;;;;;58.75;47.00;;;;;8.48;71.40;101993.03;146599;574;46010;-82
2022/02/14 07:51:27;;;;;;;;;57.50;46.00;;;;;8.55;71.36;101995.31;146596;586;46020;-73
2022/02/14 07:54:19;;;;;;;;;50.75;41.00;;;;;8.61;70.88;102000.06;146598;710;46016;-72
2022/02/14 07:57:12;;;;;;;;;51.25;40.25;;;;;8.67;70.68;101997.97;146596;569;46020;-73
2022/02/14 08:00:04;;;;;;;;;55.50;44.00;;;;;8.71;71.20;102000.00;146592;645;47011;-71
2022/02/14 08:02:57;;;;;;;;;61.50;49.50;;;;;8.77;70.82;102003.06;146590;595;46020;-77
2022/02/14 08:05:49;;;;;;;;;73.75;57.25;;;;;8.80;71.01;102002.41;146593;619;47012;-87
2022/02/14 08:08:41;;;;;;;;;61.25;47.75;;;;;8.83;70.98;102001.75;146597;717;46020;-78
2022/02/14 08:11:34;;;;;;;;;58.75;47.00;;;;;8.83;71.51;102001.75;146595;580;46016;-79
2022/02/14 08:14:26;;;;;;;;;55.25;43.00;;;;;8.81;71.07;102005.91;146592;674;46008;-79
2022/02/14 08:17:18;;;;;;;;;55.50;43.75;;;;;8.79;71.40;102005.78;146593;612;46016;-81
2022/02/14 08:20:11;;;;;;;;;62.50;50.00;;;;;8.77;71.29;102007.34;146593;575;47009;-71
2022/02/14 08:23:03;;;;;;;;;60.00;47.75;;;;;8.81;71.53;101998.12;146594;590;46012;-73
2022/02/14 08:25:55;;;;;;;;;72.25;59.50;;;;;8.82;71.52;102002.56;146596;588;46020;-73
2022/02/14 08:28:48;;;;;;;;;55.50;45.25;;;;;8.82;71.17;101999.97;146593;623;46017;-74
2022/02/14 08:31:40;;;;;;;;;56.00;45.00;;;;;8.83;71.34;101997.47;146592;565;46020;-74
2022/02/14 08:34:33;;;;;;;;;57.75;45.00;;;;;8.84;70.89;101985.44;146591;566;49013;-74
2022/02/14 08:37:25;;;;;;;;;50.00;41.25;;;;;8.85;71.27;101990.75;146591;580;46020;-74
2022/02/14 08:40:18;;;;;;;;;48.25;38.75;;;;;8.87;71.14;101988.28;146594;631;46016;-74
2022/02/14 08:43:10;;;;;;;;;56.25;44.75;;;;;8.88;71.09;101993.59;146596;628;46020;-74
2022/02/14 08:46:03;;;;;;;;;55.75;45.75;;;;;8.96;71.31;101989.00;146589;604;46016;-74
2022/02/14 08:48:56;;;;;;;;;58.25;47.50;;;;;9.02;70.80;101999.81;146593;701;46020;-74
2022/02/14 08:51:48;;;;;;;;;64.25;51.00;;;;;9.08;70.97;101992.53;146602;599;46012;-78
2022/02/14 08:54:41;;;;;;;;;65.00;50.00;;;;;9.16;70.86;101999.22;146600;599;45020;-74
2022/02/14 08:57:33;;;;;;;;;66.25;51.00;;;;;9.21;70.69;102000.44;146596;577;46916;-75
2022/02/14 09:00:26;;;;;;;;;63.25;49.50;;;;;9.27;70.44;101997.44;146594;774;46008;-75
2022/02/14 09:03:18;;;;;;;;;70.50;55.75;;;;;9.30;70.64;102008.03;146593;563;46016;-74
2022/02/14 09:06:12;;;;;;;;;66.25;51.50;;;;;9.36;70.66;102005.00;146596;622;46020;-74
2022/02/14 09:09:04;;;;;;;;;73.00;57.75;;;;;9.36;70.81;101997.25;146595;607;46915;-76
2022/02/14 09:11:56;;;;;;;;;77.00;67.00;;;;;9.46;70.55;102003.22;146595;660;46021;-75
2022/02/14 09:14:50;;;;;;;;;71.25;57.00;;;;;9.51;70.79;102000.09;146595;624;46016;-72
2022/02/14 09:17:42;;;;;;;;;63.75;50.50;;;;;9.54;70.26;102009.00;146596;598;47008;-75
2022/02/14 09:20:34;;;;;;;;;70.25;55.75;;;;;9.56;70.43;102002.22;146594;668;47012;-73
2022/02/14 09:23:26;;;;;;;;;71.25;55.75;;;;;9.59;70.66;101998.97;146596;702;46020;-72
2022/02/14 09:26:19;;;;;;;;;69.75;52.50;;;;;9.63;70.30;101991.56;146593;646;46016;-74
2022/02/14 09:29:12;;;;;;;;;80.00;70.67;;;;;9.70;70.53;101996.41;146591;570;46020;-71
2022/02/14 09:32:04;;;;;;;;;83.67;73.00;;;;;9.79;70.15;102003.09;146598;616;46016;-73
2022/02/14 09:34:56;;;;;;;;;105.33;89.67;;;;;9.89;69.85;101992.59;146602;650;46021;-75
2022/02/14 09:37:48;;;;;;;;;76.00;68.67;;;;;10.01;70.16;101998.69;146600;571;46016;-75
2022/02/14 09:40:42;;;;;;;;;72.67;60.67;;;;;10.12;69.81;101996.88;146604;644;46008;-75
2022/02/14 09:43:35;;;;;;;;;74.50;59.00;;;;;10.24;69.77;101997.78;146594;580;46017;-74
2022/02/14 09:46:30;;;;;;;;;64.25;51.75;;;;;10.36;69.82;101996.09;146596;629;47012;-74
2022/02/14 09:49:24;;;;;;;;;79.67;65.67;;;;;10.40;69.24;101979.06;146593;604;47010;-75
2022/02/14 09:52:16;;;;;;;;;79.00;70.33;;;;;10.54;69.59;101993.94;146605;616;45020;-74
2022/02/14 09:55:09;;;;;;;;;80.33;73.33;;;;;10.62;69.36;101978.91;146601;606;47010;-74
2022/02/14 09:58:01;;;;;;;;;79.00;69.33;;;;;10.73;68.92;101979.69;146597;588;46008;-74
2022/02/14 10:00:53;;;;;;;;;77.33;65.00;;;;;10.81;68.73;101971.66;146593;587;46016;-74
2022/02/14 10:03:58;;;;;;;;;76.00;65.33;;;;;10.94;68.90;101968.22;146598;601;46009;-74
2022/02/14 10:06:51;;;;;;;;;73.00;59.67;;;;;11.10;68.69;101955.50;146601;685;46915;-74
2022/02/14 10:09:42;;;;;;;;;77.33;68.00;;;;;11.25;68.78;101947.88;146596;596;47008;-75
2022/02/14 10:12:43;;;;;;;;;77.33;67.33;;;;;11.43;68.46;101957.69;146600;678;46016;-75
2022/02/14 10:15:38;;;;;;;;;74.00;61.50;;;;;11.53;68.02;101945.44;146596;569;46020;-74
2022/02/14 10:18:35;;;;;;;;;72.00;60.67;;;;;11.55;67.50;101949.00;146600;579;46916;-75
2022/02/14 10:21:31;;;;;;;;;71.50;59.00;;;;;11.52;67.54;101946.22;146596;654;46020;-74
2022/02/14 10:24:23;;;;;;;;;69.50;53.25;;;;;11.52;68.09;101940.12;146592;679;47012;-73
2022/02/14 10:27:17;;;;;;;;;66.75;52.50;;;;;11.59;67.46;101933.62;146590;572;46021;-75
2022/02/14 10:30:14;;;;;;;;;62.25;48.50;;;;;11.68;67.01;101927.38;146591;618;48915;-73
2022/02/14 10:33:06;;;;;;;;;63.75;47.75;;;;;11.74;67.31;101921.66;146597;570;46008;-73
2022/02/14 10:35:58;;;;;;;;;60.50;48.25;;;;;11.83;66.85;101918.75;146597;706;46016;-73
2022/02/14 10:38:51;;;;;;;;;61.25;46.75;;;;;11.93;66.89;101910.78;146593;616;46020;-73
2022/02/14 10:41:50;;;;;;;;;53.00;43.25;;;;;12.03;65.86;101910.59;146593;616;46012;-74
2022/02/14 10:48:01;;;;;;;;;47.00;37.25;;;;;12.55;64.29;101902.56;146593;589;46016;-73
2022/02/14 10:51:02;;;;;;;;;47.25;39.00;;;;;12.85;63.98;101895.75;146598;633;46008;-73
2022/02/14 10:53:54;;;;;;;;;52.00;39.50;;;;;13.17;63.59;101892.47;146596;565;46010;-73
2022/02/14 10:56:47;;;;;;;;;44.00;34.75;;;;;13.61;62.96;101895.13;146591;638;47009;-73
2022/02/14 10:59:39;;;;;;;;;43.25;35.75;;;;;14.02;61.37;101875.69;146596;615;46012;-74
2022/02/14 11:02:33;;;;;;;;;37.00;33.25;;;;;14.36;59.68;101874.00;146596;636;46020;-74
2022/02/14 11:05:25;;;;;;;;;29.75;28.25;;;;;14.50;58.23;101865.22;146595;624;47010;-74
2022/02/14 11:08:18;;;;;;;;;28.50;25.50;;;;;14.55;57.09;101866.41;146595;589;46020;-74
2022/02/14 11:11:13;;;;;;;;;29.50;25.75;;;;;14.51;57.37;101859.22;146587;575;47916;-74
2022/02/14 11:14:07;;;;;;;;;26.00;22.25;;;;;14.55;58.33;101855.97;146597;565;46008;-74
2022/02/14 11:17:02;;;;;;;;;29.50;26.75;;;;;14.71;56.18;101849.84;146593;612;46013;-74
2022/02/14 11:20:00;;;;;;;;;26.25;25.00;;;;;14.71;57.05;101836.78;146597;581;47008;-74
2022/02/14 11:22:54;;;;;;;;;30.25;25.75;;;;;14.78;56.29;101845.00;146591;616;46016;-74
2022/02/14 11:26:12;;;;;;;;;29.25;27.25;;;;;14.75;58.55;101844.84;146591;607;46021;-74
2022/02/14 11:29:52;;;;;;;;;36.50;29.75;;;;;13.57;57.83;101644.66;146594;602;46012;-74
2022/02/14 11:32:45;;;;;;;;;28.50;22.00;;;;;14.73;55.04;101835.12;146595;625;46020;-74
2022/02/14 11:35:37;;;;;;;;;33.50;30.25;;;;;14.85;56.30;101829.66;146594;650;46016;-74
2022/02/14 11:38:46;;;;;;;;;28.00;24.50;;;;;15.09;55.66;101822.19;146591;563;46020;-74
2022/02/14 11:41:51;;;;;;;;;18.50;17.50;;;;;15.40;54.13;101822.88;146594;584;46016;-74
2022/02/14 11:44:45;;;;;;;;;17.75;16.75;;;;;15.74;52.25;101821.94;146600;614;46008;-75
2022/02/14 11:47:38;;;;;;;;;25.00;23.50;;;;;15.95;53.62;101819.44;146603;589;46017;-75
2022/02/14 11:50:46;;;;;;;;;24.00;20.25;;;;;16.17;55.50;101819.63;146599;602;46024;-74
2022/02/14 11:53:47;;;;;;;;;18.75;16.25;;;;;16.25;51.18;101813.81;146593;573;46010;-75
2022/02/14 11:56:44;;;;;;;;;14.50;14.00;;;;;16.22;51.19;101813.69;146593;569;46008;-75
2022/02/14 11:59:36;;;;;;;;;19.25;18.00;;;;;16.31;51.09;101814.09;146593;586;46010;-75
2022/02/14 12:02:33;;;;;;;;;16.00;15.00;;;;;16.40;50.18;101810.16;146600;713;45027;-75
2022/02/14 12:05:49;;;;;;;;;22.00;19.50;;;;;16.42;54.26;101802.41;146597;584;46915;-75
2022/02/14 12:09:07;;;;;;;;;21.75;18.75;;;;;16.55;53.12;101802.09;146597;615;46008;-74
2022/02/14 12:11:59;;;;;;;;;30.50;26.00;;;;;16.62;51.92;101801.53;146596;627;46016;-74
2022/02/14 12:14:51;;;;;;;;;18.75;17.00;;;;;16.72;50.10;101800.22;146595;619;46020;-75
2022/02/14 12:20:57;;;;;;;;;16.50;15.75;;;;;16.57;49.72;101802.16;146599;658;46008;-74
2022/02/14 12:23:52;;;;;;;;;15.50;13.50;;;;;16.48;47.58;101789.59;146594;777;46016;-74
2022/02/14 12:26:44;;;;;;;;;18.00;18.00;;;;;16.46;49.41;101793.84;146591;579;46020;-74
2022/02/14 12:29:36;;;;;;;;;17.00;14.75;;;;;16.36;48.41;101789.94;146598;679;46010;-74
2022/02/14 12:32:28;;;;;;;;;17.50;17.50;;;;;16.34;51.26;101782.84;146599;692;45021;-75
2022/02/14 12:35:40;;;;;;;;;18.00;18.00;;;;;16.39;53.83;101782.22;146597;591;47010;-74
2022/02/14 12:38:37;;;;;;;;;17.75;16.00;;;;;16.41;50.05;101774.41;146597;580;46021;-74
2022/02/14 12:41:29;;;;;;;;;22.25;18.50;;;;;16.35;51.21;101768.91;146596;584;46016;-74
2022/02/14 12:44:21;;;;;;;;;22.00;19.50;;;;;16.33;52.44;101762.72;146593;582;46027;-74
2022/02/14 12:47:18;;;;;;;;;23.00;21.25;;;;;16.41;52.42;101763.94;146593;564;46017;-74
2022/02/14 12:50:19;;;;;;;;;25.00;22.00;;;;;16.47;50.90;101774.69;146597;670;47008;-74
2022/02/14 12:53:14;;;;;;;;;12.50;12.00;;;;;16.38;51.48;101764.69;146595;593;46010;-74
2022/02/14 12:56:23;;;;;;;;;20.75;18.00;;;;;16.30;53.22;101766.09;146591;636;46020;-74
2022/02/14 12:59:18;;;;;;;;;21.75;18.75;;;;;16.16;52.20;101770.69;146592;563;46016;-74
2022/02/14 13:02:10;;;;;;;;;19.25;16.75;;;;;16.05;52.45;101769.34;146589;651;46008;-74
2022/02/14 13:05:02;;;;;;;;;19.50;17.00;;;;;16.06;52.53;101768.50;146593;703;46016;-74
2022/02/14 13:07:55;;;;;;;;;23.25;21.00;;;;;16.14;52.63;101758.41;146601;647;47008;-74
2022/02/14 13:10:53;;;;;;;;;23.00;20.25;;;;;16.27;50.26;101765.06;146595;647;47010;-74
2022/02/14 13:13:46;;;;;;;;;18.50;17.25;;;;;16.30;50.83;101763.47;146598;570;47008;-73
2022/02/14 13:16:41;;;;;;;;;23.00;18.50;;;;;16.36;51.66;101761.12;146596;622;46017;-74
2022/02/14 13:19:35;;;;;;;;;18.50;17.50;;;;;16.44;51.89;101761.47;146598;622;47008;-75
2022/02/14 13:22:41;;;;;;;;;25.25;21.50;;;;;16.51;51.15;101757.38;146597;619;47010;-73
2022/02/14 13:25:33;;;;;;;;;24.50;20.75;;;;;16.50;51.17;101768.69;146594;581;45913;-73